^^
B2 Weather Station Historical Data
Daily Summary for January 2, 2018 Units:  Metric    English   Both
« Previous Day
Next Day »
Daily Weekly Monthly Yearly Custom
  High: Low: Average:
Temperature: -14.6 °C -25.4 °C -20.2 °C
Dew Point: -17.9 °C -27.9 °C -23.1 °C
Humidity: 82 % 71 % 78 %
Wind Speed: 25.9 km/h 0 km/h 11.3 km/h
Wind Gust: 25.9 km/h - -
Wind:- - SW
Pressure: 1042.5 hPa 1022.6 hPa -
Precipitation: 0 mm    
Historical Graphs
 
 
Tabular Data for January 2, 2018
Time Temperature Dew Point Pressure Wind Wind Speed Wind Gust Humidity Rainfall Rate (Hourly) solar Conditions
00:00 -23.7 °C -26.2 °C 1042.5 hPa WSW 5.6 km/h 5.6 km/h 80 % 0 mm 0.0 W/m2 CLR
00:04 -23.7 °C -26.2 °C 1042.5 hPa WSW 7.4 km/h 7.4 km/h 80 % 0 mm 0.0 W/m2 CLR
00:07 -23.7 °C -26.2 °C 1042.5 hPa West 7.4 km/h 7.4 km/h 80 % 0 mm 0.0 W/m2 CLR
00:12 -23.6 °C -26.1 °C 1042.5 hPa West 13 km/h 13 km/h 80 % 0 mm 0.0 W/m2 CLR
00:14 -23.6 °C -26.1 °C 1042.5 hPa WSW 5.6 km/h 6.9 km/h 80 % 0 mm 0.0 W/m2 CLR
00:17 -23.6 °C -26.1 °C 1042.2 hPa West 13 km/h 13 km/h 80 % 0 mm 0.0 W/m2 CLR
00:21 -23.4 °C -25.8 °C 1042.5 hPa WSW 7.4 km/h 7.4 km/h 81 % 0 mm 0.0 W/m2 CLR
00:25 -23.4 °C -25.8 °C 1042.5 hPa WSW 13 km/h 13 km/h 81 % 0 mm 0.0 W/m2 CLR
00:27 -23.4 °C -25.8 °C 1042.5 hPa WSW 9.3 km/h 9.3 km/h 81 % 0 mm 0.0 W/m2 CLR
00:32 -23.3 °C -25.7 °C 1042.2 hPa WSW 11.1 km/h 11.1 km/h 81 % 0 mm 0.0 W/m2 CLR
00:39 -23.3 °C -25.6 °C 1042.2 hPa WSW 7.4 km/h 7.4 km/h 81 % 0 mm 0.0 W/m2 CLR
00:41 -23.3 °C -25.6 °C 1042.2 hPa WSW 9.7 km/h 9.7 km/h 81 % 0 mm 0.0 W/m2 CLR
00:42 -23.3 °C -25.6 °C 1042.2 hPa WSW 11.1 km/h 11.1 km/h 81 % 0 mm 0.0 W/m2 CLR
00:48 -23.2 °C -25.6 °C 1042.2 hPa WSW 9.3 km/h 9.3 km/h 81 % 0 mm 0.0 W/m2 CLR
00:53 -23.2 °C -25.7 °C 1042.2 hPa West 13 km/h 13 km/h 80 % 0 mm 0.0 W/m2 CLR
00:54 -23.2 °C -25.7 °C 1041.9 hPa West 12.9 km/h 12.9 km/h 80 % 0 mm 0.0 W/m2 CLR
00:59 -23.3 °C -25.8 °C 1041.9 hPa WSW 9.3 km/h 9.3 km/h 80 % 0 mm 0.0 W/m2 CLR
01:00 -23.3 °C -25.8 °C 1041.9 hPa West 7.4 km/h 7.4 km/h 80 % 0 mm 0.0 W/m2 CLR
01:05 -23.3 °C -25.8 °C 1041.9 hPa WSW 5.6 km/h 5.6 km/h 80 % 0 mm 0.0 W/m2 CLR
01:06 -23.3 °C -25.8 °C 1041.9 hPa WSW 5.6 km/h 5.6 km/h 80 % 0 mm 0.0 W/m2 CLR
01:11 -23.4 °C -25.9 °C 1041.9 hPa West 4.8 km/h 4.8 km/h 80 % 0 mm 0.0 W/m2 CLR
01:12 -23.4 °C -25.9 °C 1041.9 hPa West 13 km/h 13 km/h 80 % 0 mm 0.0 W/m2 CLR
01:16 -23.4 °C -25.8 °C 1041.9 hPa West 3.7 km/h 3.7 km/h 81 % 0 mm 0.0 W/m2 CLR
01:18 -23.4 °C -25.8 °C 1041.9 hPa WSW 6.4 km/h 6.4 km/h 81 % 0 mm 0.0 W/m2 CLR
01:23 -23.6 °C -25.9 °C 1041.9 hPa WSW 11.1 km/h 11.1 km/h 81 % 0 mm 0.0 W/m2 CLR
01:24 -23.6 °C -25.9 °C 1041.9 hPa WSW 11.1 km/h 11.1 km/h 81 % 0 mm 0.0 W/m2 CLR
01:29 -23.6 °C -25.9 °C 1041.9 hPa WSW 8 km/h 8 km/h 81 % 0 mm 0.0 W/m2 CLR
01:32 -23.7 °C -26 °C 1041.9 hPa West 9.3 km/h 9.3 km/h 81 % 0 mm 0.0 W/m2 CLR
01:36 -23.7 °C -26 °C 1041.9 hPa West 7.4 km/h 7.4 km/h 81 % 0 mm 0.0 W/m2 CLR
01:40 -23.7 °C -26.1 °C 1042.2 hPa WSW 9.3 km/h 9.3 km/h 81 % 0 mm 0.0 W/m2 CLR
01:42 -23.7 °C -26.1 °C 1042.2 hPa West 5.6 km/h 5.6 km/h 81 % 0 mm 0.0 W/m2 CLR
01:47 -23.7 °C -26.1 °C 1042.2 hPa WSW 5.6 km/h 5.6 km/h 81 % 0 mm 0.0 W/m2 CLR
01:48 -23.7 °C -26.1 °C 1042.2 hPa West 9.3 km/h 9.3 km/h 81 % 0 mm 0.0 W/m2 CLR
01:53 -23.7 °C -26.1 °C 1042.2 hPa WSW 3.7 km/h 3.7 km/h 81 % 0 mm 0.0 W/m2 CLR
01:54 -23.7 °C -26.1 °C 1042.2 hPa WSW 3.7 km/h 3.7 km/h 81 % 0 mm 0.0 W/m2 CLR
01:57 -23.7 °C -26 °C 1042.2 hPa North 13 km/h 13 km/h 81 % 0 mm 0.0 W/m2 CLR
01:59 -23.7 °C -26.1 °C 1042.2 hPa WSW 7.4 km/h 7.4 km/h 81 % 0 mm 0.0 W/m2 CLR
02:04 -23.8 °C -26.1 °C 1042.2 hPa WSW 5.6 km/h 5.6 km/h 81 % 0 mm 0.0 W/m2 CLR
02:10 -23.8 °C -26.2 °C 1042.2 hPa WSW 11.1 km/h 11.1 km/h 81 % 0 mm 0.0 W/m2 CLR
02:15 -23.9 °C -26.3 °C 1042.2 hPa WSW 5.6 km/h 5.6 km/h 81 % 0 mm 0.0 W/m2 CLR
02:16 -23.9 °C -26.3 °C 1042.2 hPa SW 11.3 km/h 11.3 km/h 81 % 0 mm 0.0 W/m2 CLR
02:22 -23.9 °C -26.2 °C 1042.2 hPa WSW 5.6 km/h 5.6 km/h 82 % 0 mm 0.0 W/m2 CLR
02:23 -23.9 °C -26.3 °C 1042.2 hPa WSW 5.6 km/h 5.6 km/h 81 % 0 mm 0.0 W/m2 CLR
02:28 -23.9 °C -26.2 °C 1042.2 hPa WSW 5.6 km/h 5.6 km/h 82 % 0 mm 0.0 W/m2 CLR
02:30 -23.9 °C -26.3 °C 1042.2 hPa WSW 5.6 km/h 5.6 km/h 81 % 0 mm 0.0 W/m2 CLR
02:36 -24.1 °C -26.4 °C 1042.2 hPa WSW 5.6 km/h 5.6 km/h 81 % 0 mm 0.0 W/m2 CLR
02:41 -24.2 °C -26.6 °C 1042.2 hPa WSW 3.7 km/h 3.7 km/h 81 % 0 mm 0.0 W/m2 CLR
02:46 -24.3 °C -26.7 °C 1042.5 hPa SW 11.1 km/h 11.1 km/h 81 % 0 mm 0.0 W/m2 CLR
02:48 -24.3 °C -26.7 °C 1042.5 hPa WSW 9.3 km/h 9.3 km/h 81 % 0 mm 0.0 W/m2 CLR
02:53 -24.3 °C -26.7 °C 1042.2 hPa WSW 5.6 km/h 5.6 km/h 81 % 0 mm 0.0 W/m2 CLR
02:56 -24.3 °C -26.6 °C 1042.2 hPa WSW 11.1 km/h 11.1 km/h 82 % 0 mm 0.0 W/m2 CLR
03:01 -24.3 °C -26.6 °C 1042.2 hPa West 11.1 km/h 11.1 km/h 82 % 0 mm 0.0 W/m2 CLR
03:02 -24.3 °C -26.6 °C 1042.2 hPa West 5.6 km/h 5.6 km/h 82 % 0 mm 0.0 W/m2 CLR
03:04 -24.3 °C -26.6 °C 1041.9 hPa WSW 6.4 km/h 6.4 km/h 82 % 0 mm 0.0 W/m2 CLR
03:09 -24.3 °C -26.6 °C 1041.9 hPa SW 9.3 km/h 9.3 km/h 82 % 0 mm 0.0 W/m2 CLR
03:10 -24.4 °C -26.6 °C 1041.9 hPa WSW 6.4 km/h 6.4 km/h 82 % 0 mm 0.0 W/m2 CLR
03:14 -24.4 °C -26.6 °C 1041.9 hPa WSW 8 km/h 8 km/h 82 % 0 mm 0.0 W/m2 CLR
03:15 -24.4 °C -26.6 °C 1041.9 hPa WSW 14.8 km/h 14.8 km/h 82 % 0 mm 0.0 W/m2 CLR
03:20 -24.3 °C -26.6 °C 1041.9 hPa WSW 5.6 km/h 5.6 km/h 82 % 0 mm 0.0 W/m2 CLR
03:21 -24.3 °C -26.6 °C 1041.9 hPa WSW 5.6 km/h 5.6 km/h 82 % 0 mm 0.0 W/m2 CLR
03:26 -24.3 °C -26.5 °C 1041.9 hPa WSW 7.4 km/h 7.4 km/h 82 % 0 mm 0.0 W/m2 CLR
03:27 -24.3 °C -26.5 °C 1041.5 hPa WSW 8 km/h 8 km/h 82 % 0 mm 0.0 W/m2 CLR
03:32 -24.2 °C -26.4 °C 1041.5 hPa West 7.4 km/h 7.4 km/h 82 % 0 mm 0.0 W/m2 CLR
03:34 -24.2 °C -26.4 °C 1041.5 hPa West 11.1 km/h 11.1 km/h 82 % 0 mm 0.0 W/m2 CLR
03:37 -24.2 °C -26.4 °C 1041.5 hPa WSW 11.1 km/h 11.1 km/h 82 % 0 mm 0.0 W/m2 CLR
03:40 -24.2 °C -26.4 °C 1041.9 hPa WNW 11.1 km/h 11.1 km/h 82 % 0 mm 0.0 W/m2 CLR
03:45 -24.2 °C -26.4 °C 1041.9 hPa WSW 7.4 km/h 7.4 km/h 82 % 0 mm 0.0 W/m2 CLR
03:47 -24.2 °C -26.4 °C 1041.9 hPa WSW 6.4 km/h 6.4 km/h 82 % 0 mm 0.0 W/m2 CLR
03:52 -24.3 °C -26.5 °C 1041.5 hPa WSW 7.4 km/h 7.4 km/h 82 % 0 mm 0.0 W/m2 CLR
03:57 -24.4 °C -26.6 °C 1041.5 hPa SW 9.7 km/h 9.7 km/h 82 % 0 mm 0.0 W/m2 CLR
04:02 -24.5 °C -26.8 °C 1041.5 hPa WSW 5.6 km/h 5.6 km/h 81 % 0 mm 0.0 W/m2 CLR
04:03 -24.6 °C -26.9 °C 1041.5 hPa WSW 5.6 km/h 5.6 km/h 81 % 0 mm 0.0 W/m2 CLR
04:08 -24.6 °C -26.9 °C 1041.5 hPa West 7.4 km/h 7.4 km/h 81 % 0 mm 0.0 W/m2 CLR
04:13 -24.7 °C -27 °C 1041.5 hPa WSW 6.4 km/h 6.4 km/h 81 % 0 mm 0.0 W/m2 CLR
04:15 -24.6 °C -26.9 °C 1041.5 hPa West 9.3 km/h 9.3 km/h 81 % 0 mm 0.0 W/m2 CLR
04:19 -24.6 °C -26.8 °C 1041.2 hPa West 9.3 km/h 9.3 km/h 82 % 0 mm 0.0 W/m2 CLR
04:22 -24.6 °C -26.7 °C 1041.2 hPa WSW 5.6 km/h 6.4 km/h 82 % 0 mm 0.0 W/m2 CLR
04:24 -24.6 °C -26.7 °C 1041.2 hPa WSW 9.3 km/h 9.3 km/h 82 % 0 mm 0.0 W/m2 CLR
04:28 -24.6 °C -26.7 °C 1041.2 hPa WSW 5.6 km/h 5.6 km/h 82 % 0 mm 0.0 W/m2 CLR
04:29 -24.6 °C -26.7 °C 1041.2 hPa WSW 4.8 km/h 4.8 km/h 82 % 0 mm 0.0 W/m2 CLR
04:34 -24.6 °C -26.7 °C 1041.2 hPa WSW 5.6 km/h 5.6 km/h 82 % 0 mm 0.0 W/m2 CLR
04:35 -24.6 °C -26.7 °C 1041.2 hPa WSW 9.7 km/h 9.7 km/h 82 % 0 mm 0.0 W/m2 CLR
04:40 -24.6 °C -26.7 °C 1041.2 hPa WSW 5.6 km/h 5.6 km/h 82 % 0 mm 0.0 W/m2 CLR
04:45 -24.5 °C -26.7 °C 1041.2 hPa WSW 5.6 km/h 5.6 km/h 82 % 0 mm 0.0 W/m2 CLR
04:46 -24.5 °C -26.7 °C 1041.2 hPa WSW 7.4 km/h 7.4 km/h 82 % 0 mm 0.0 W/m2 CLR
04:47 -24.5 °C -26.7 °C 1041.2 hPa WSW 8 km/h 8 km/h 82 % 0 mm 0.0 W/m2 CLR
04:52 -24.5 °C -26.7 °C 1041.2 hPa WSW 5.6 km/h 5.6 km/h 82 % 0 mm 0.0 W/m2 CLR
04:53 -24.5 °C -26.7 °C 1041.2 hPa WSW 9.3 km/h 9.3 km/h 82 % 0 mm 0.0 W/m2 CLR
04:54 -24.5 °C -26.7 °C 1041.2 hPa WSW 8 km/h 8 km/h 82 % 0 mm 0.0 W/m2 CLR
04:58 -24.6 °C -26.7 °C 1041.2 hPa WSW 9.7 km/h 9.7 km/h 82 % 0 mm 0.0 W/m2 CLR
05:03 -24.6 °C -26.9 °C 1041.2 hPa WSW 9.3 km/h 9.3 km/h 81 % 0 mm 0.0 W/m2 CLR
05:04 -24.6 °C -26.9 °C 1041.2 hPa WSW 7.4 km/h 7.4 km/h 81 % 0 mm 0.0 W/m2 CLR
05:07 -24.7 °C -27 °C 1041.2 hPa SW 9.3 km/h 9.3 km/h 81 % 0 mm 0.0 W/m2 CLR
05:09 -24.6 °C -26.9 °C 1041.2 hPa WSW 13 km/h 13 km/h 81 % 0 mm 0.0 W/m2 CLR
05:15 -24.6 °C -26.8 °C 1041.2 hPa WSW 9.3 km/h 9.3 km/h 82 % 0 mm 0.0 W/m2 CLR
05:19 -24.6 °C -26.7 °C 1041.2 hPa WSW 11.1 km/h 11.1 km/h 82 % 0 mm 0.0 W/m2 CLR
05:20 -24.6 °C -26.7 °C 1041.2 hPa SW 11.1 km/h 11.1 km/h 82 % 0 mm 0.0 W/m2 CLR
05:28 -24.6 °C -26.7 °C 1041.2 hPa WSW 9.7 km/h 9.7 km/h 82 % 0 mm 0.0 W/m2 CLR
05:31 -24.6 °C -26.9 °C 1040.9 hPa WSW 9.3 km/h 9.3 km/h 81 % 0 mm 0.0 W/m2 CLR
05:33 -24.6 °C -26.9 °C 1040.9 hPa WSW 7.4 km/h 7.7 km/h 81 % 0 mm 0.0 W/m2 CLR
05:38 -24.7 °C -27.1 °C 1040.9 hPa SW 9.3 km/h 9.3 km/h 81 % 0 mm 0.0 W/m2 CLR
05:39 -24.8 °C -27.1 °C 1040.9 hPa SW 9.3 km/h 9.3 km/h 81 % 0 mm 0.0 W/m2 CLR
05:43 -25 °C -27.4 °C 1040.9 hPa WSW 9.3 km/h 9.3 km/h 80 % 0 mm 0.0 W/m2 CLR
05:46 -25.2 °C -27.6 °C 1040.9 hPa SW 9.3 km/h 9.3 km/h 80 % 0 mm 0.0 W/m2 CLR
05:49 -25.2 °C -27.7 °C 1040.5 hPa SW 11.1 km/h 11.1 km/h 80 % 0 mm 0.0 W/m2 CLR
05:54 -25.3 °C -27.8 °C 1040.9 hPa WSW 13 km/h 13 km/h 80 % 0 mm 0.0 W/m2 CLR
05:55 -25.4 °C -27.8 °C 1040.5 hPa SW 13 km/h 13 km/h 80 % 0 mm 0.0 W/m2 CLR
06:00 -25.4 °C -27.9 °C 1040.9 hPa SW 11.1 km/h 11.1 km/h 80 % 0 mm 0.0 W/m2 CLR
06:01 -25.4 °C -27.9 °C 1040.9 hPa WSW 13 km/h 13 km/h 80 % 0 mm 0.0 W/m2 CLR
06:06 -25.4 °C -27.8 °C 1040.9 hPa WSW 11.1 km/h 11.1 km/h 81 % 0 mm 0.0 W/m2 CLR
06:08 -25.4 °C -27.8 °C 1040.9 hPa WSW 5.6 km/h 5.6 km/h 81 % 0 mm 0.0 W/m2 CLR
06:14 -25.4 °C -27.7 °C 1041.2 hPa WSW 7.4 km/h 7.4 km/h 81 % 0 mm 0.0 W/m2 CLR
06:19 -25.4 °C -27.7 °C 1041.2 hPa WSW 5.6 km/h 5.6 km/h 81 % 0 mm 0.0 W/m2 CLR
06:21 -25.4 °C -27.7 °C 1041.2 hPa WSW 5.6 km/h 5.6 km/h 81 % 0 mm 0.0 W/m2 CLR
06:26 -25.4 °C -27.8 °C 1041.2 hPa WSW 1.9 km/h 1.9 km/h 81 % 0 mm 0.0 W/m2 CLR
06:27 -25.4 °C -27.8 °C 1041.2 hPa WSW 1.9 km/h 1.9 km/h 81 % 0 mm 0.0 W/m2 CLR
06:28 -25.4 °C -27.8 °C 1041.2 hPa WSW 1.9 km/h   81 % 0 mm 0.0 W/m2 CLR
06:32 -25.4 °C -27.8 °C 1041.2 hPa WSW 5.6 km/h 5.6 km/h 81 % 0 mm 0.0 W/m2 CLR
06:36 -25.4 °C -27.8 °C 1041.2 hPa WSW 5.6 km/h 5.6 km/h 81 % 0 mm 0.0 W/m2 CLR
06:38 -25.4 °C -27.8 °C 1041.2 hPa WSW 9.3 km/h 9.3 km/h 81 % 0 mm 0.0 W/m2 CLR
06:43 -25.4 °C -27.8 °C 1040.9 hPa North 8 km/h 8 km/h 81 % 0 mm 0.0 W/m2 CLR
06:46 -25.4 °C -27.8 °C 1041.2 hPa WSW 5.6 km/h 5.6 km/h 81 % 0 mm 0.0 W/m2 CLR
06:49 -25.4 °C -27.7 °C 1040.9 hPa North 13 km/h 13 km/h 81 % 0 mm 0.0 W/m2 CLR
06:51 -25.3 °C -27.7 °C 1041.2 hPa WSW 5.6 km/h 5.6 km/h 81 % 0 mm 0.0 W/m2 CLR
06:56 -25.3 °C -27.7 °C 1041.2 hPa West 7.4 km/h 7.4 km/h 81 % 0 mm 0.0 W/m2 CLR
06:58 -25.3 °C -27.6 °C 1041.2 hPa West 9.3 km/h 9.3 km/h 81 % 0 mm 0.0 W/m2 CLR
07:03 -25.3 °C -27.6 °C 1041.2 hPa West 5.6 km/h 5.6 km/h 81 % 0 mm 0.0 W/m2 CLR
07:08 -25.3 °C -27.6 °C 1041.2 hPa West 3.7 km/h 3.7 km/h 81 % 0 mm 0.0 W/m2 CLR
07:13 -25.3 °C -27.7 °C 1040.9 hPa West 5.6 km/h 5.6 km/h 81 % 0 mm 0.0 W/m2 CLR
07:17 -25.3 °C -27.7 °C 1041.2 hPa WSW 5.6 km/h 5.6 km/h 81 % 0 mm 5.0 W/m2 CLR
07:19 -25.3 °C -27.7 °C 1041.2 hPa WSW 5.6 km/h 5.6 km/h 81 % 0 mm 5.0 W/m2 CLR
07:24 -25.3 °C -27.6 °C 1040.9 hPa WSW 5.6 km/h 5.6 km/h 81 % 0 mm 9.0 W/m2 CLR
07:25 -25.3 °C -27.6 °C 1040.9 hPa WSW 5.6 km/h 5.6 km/h 81 % 0 mm 9.0 W/m2 CLR
07:26 -25.3 °C -27.6 °C 1040.9 hPa WSW 3.7 km/h 3.7 km/h 81 % 0 mm 9.0 W/m2 CLR
07:31 -25.2 °C -27.6 °C 1040.9 hPa SW 7.4 km/h 7.4 km/h 81 % 0 mm 12.0 W/m2 CLR
07:36 -25.1 °C -27.4 °C 1040.9 hPa WSW 9.3 km/h 9.3 km/h 81 % 0 mm 16.0 W/m2 CLR
07:37 -25.1 °C -27.4 °C 1040.9 hPa WSW 8 km/h 8 km/h 81 % 0 mm 16.0 W/m2 CLR
07:38 -25.1 °C -27.4 °C 1040.9 hPa SW 9.3 km/h 9.3 km/h 81 % 0 mm 18.0 W/m2 CLR
07:42 -25 °C -27.3 °C 1040.9 hPa SW 3.7 km/h 3.7 km/h 81 % 0 mm 26.0 W/m2 CLR
07:46 -24.9 °C -27.2 °C 1040.9 hPa WSW 8 km/h 8 km/h 81 % 0 mm 35.0 W/m2 CLR
07:51 -24.8 °C -27.1 °C 1040.9 hPa North 9.7 km/h 9.7 km/h 81 % 0 mm 47.0 W/m2 CLR
07:52 -24.8 °C -27.1 °C 1040.9 hPa SW 13 km/h 13 km/h 81 % 0 mm 49.0 W/m2 CLR
07:55 -24.7 °C -27 °C 1040.9 hPa West 5.6 km/h 5.6 km/h 81 % 0 mm 56.0 W/m2 CLR
07:59 -24.6 °C -26.9 °C 1040.9 hPa West 5.6 km/h 5.6 km/h 81 % 0 mm 65.0 W/m2 CLR
08:03 -24.6 °C -26.9 °C 1040.9 hPa SW 11.1 km/h 11.1 km/h 81 % 0 mm 74.0 W/m2 CLR
08:05 -24.5 °C -26.8 °C 1040.9 hPa WSW 9.3 km/h 9.3 km/h 81 % 0 mm 77.0 W/m2 CLR
08:10 -24.4 °C -26.7 °C 1040.9 hPa WSW 5.6 km/h 5.6 km/h 81 % 0 mm 93.0 W/m2 CLR
08:12 -24.3 °C -26.7 °C 1040.9 hPa WSW 9.7 km/h 9.7 km/h 81 % 0 mm 98.0 W/m2 CLR
08:17 -24.2 °C -26.5 °C 1040.9 hPa WSW 5.6 km/h 5.6 km/h 81 % 0 mm 113.0 W/m2 CLR
08:21 -24.1 °C -26.4 °C 1040.9 hPa West 11.1 km/h 11.1 km/h 81 % 0 mm 123.0 W/m2 CLR
08:23 -24 °C -26.3 °C 1040.9 hPa West 9.3 km/h 9.3 km/h 81 % 0 mm 132.0 W/m2 CLR
08:27 -23.8 °C -26.2 °C 1040.9 hPa North 5.6 km/h 5.6 km/h 81 % 0 mm 141.0 W/m2 CLR
08:30 -23.7 °C -26.1 °C 1041.2 hPa WSW 4.8 km/h 4.8 km/h 81 % 0 mm 149.0 W/m2 CLR
08:34 -23.6 °C -25.9 °C 1040.9 hPa Calm   0.6 km/h 81 % 0 mm 163.0 W/m2 CLR
08:36 -23.5 °C -25.8 °C 1040.9 hPa SW 5.6 km/h 5.6 km/h 81 % 0 mm 169.0 W/m2 CLR
08:41 -23.3 °C -25.6 °C 1040.9 hPa SW 1.9 km/h 1.9 km/h 81 % 0 mm 185.0 W/m2 CLR
08:43 -23.3 °C -25.8 °C 1040.9 hPa SW 3.7 km/h 3.7 km/h 80 % 0 mm 190.0 W/m2 CLR
08:48 -23.2 °C -25.7 °C 1040.9 hPa SW 5.6 km/h 5.6 km/h 80 % 0 mm 204.0 W/m2 CLR
08:50 -23.1 °C -25.6 °C 1040.9 hPa SSW 5.6 km/h 5.6 km/h 80 % 0 mm 213.0 W/m2 CLR
08:55 -23.1 °C -25.7 °C 1040.9 hPa SSW 11.1 km/h 11.1 km/h 79 % 0 mm 229.0 W/m2 CLR
08:58 -23.1 °C -25.7 °C 1040.5 hPa WSW 5.6 km/h 5.6 km/h 79 % 0 mm 236.0 W/m2 CLR
08:59 -23.1 °C -25.7 °C 1040.5 hPa WSW 5.6 km/h 5.6 km/h 79 % 0 mm 239.0 W/m2 CLR
09:03 -23.1 °C -25.8 °C 1040.9 hPa WSW 11.3 km/h 11.3 km/h 78 % 0 mm 251.0 W/m2 CLR
09:04 -23.1 °C -25.8 °C 1040.9 hPa North 14.8 km/h 14.8 km/h 78 % 0 mm 251.0 W/m2 CLR
09:09 -23.3 °C -26.1 °C 1040.5 hPa SW 16.7 km/h 16.7 km/h 78 % 0 mm 267.0 W/m2 CLR
09:11 -23.3 °C -26.1 °C 1040.5 hPa SW 14.8 km/h 14.8 km/h 78 % 0 mm 271.0 W/m2 CLR
09:12 -23.2 °C -26 °C 1040.9 hPa SW 14.8 km/h 14.8 km/h 78 % 0 mm 272.0 W/m2 CLR
09:17 -23.1 °C -25.8 °C 1040.5 hPa SSW 13 km/h 13 km/h 78 % 0 mm 283.0 W/m2 CLR
09:18 -23.1 °C -25.7 °C 1040.5 hPa SW 13 km/h 13 km/h 79 % 0 mm 287.0 W/m2 CLR
09:23 -22.9 °C -25.7 °C 1040.5 hPa SW 13 km/h 13 km/h 78 % 0 mm 295.0 W/m2 CLR
09:28 -22.7 °C -25.5 °C 1040.5 hPa North 18.5 km/h 18.5 km/h 78 % 0 mm 308.0 W/m2 CLR
09:30 -22.7 °C -25.5 °C 1040.5 hPa SW 13 km/h 13 km/h 78 % 0 mm 309.0 W/m2 CLR
09:31 -22.7 °C -25.4 °C 1040.5 hPa SW 13 km/h 13 km/h 78 % 0 mm 313.0 W/m2 CLR
09:36 -22.6 °C -25.3 °C 1040.5 hPa North 20.4 km/h 20.4 km/h 78 % 0 mm 322.0 W/m2 CLR
09:40 -22.4 °C -25.4 °C 1040.5 hPa SW 16.1 km/h 16.1 km/h 77 % 0 mm 332.0 W/m2 CLR
09:44 -22.3 °C -25.3 °C 1040.5 hPa SW 18.5 km/h 18.5 km/h 77 % 0 mm 336.0 W/m2 CLR
09:49 -22.2 °C -25.2 °C 1040.5 hPa WSW 16.7 km/h 16.7 km/h 77 % 0 mm 346.0 W/m2 CLR
09:54 -22.1 °C -25.1 °C 1040.5 hPa SW 20.4 km/h 20.4 km/h 77 % 0 mm 357.0 W/m2 CLR
09:58 -22.1 °C -25.2 °C 1040.5 hPa WSW 18.5 km/h 18.5 km/h 76 % 0 mm 362.0 W/m2 CLR
10:00 -22.1 °C -25 °C 1040.5 hPa WSW 18.5 km/h 18.5 km/h 77 % 0 mm 366.0 W/m2 CLR
10:05 -21.8 °C -24.9 °C 1040.5 hPa WSW 18.5 km/h 18.5 km/h 76 % 0 mm 374.0 W/m2 CLR
10:06 -21.8 °C -24.9 °C 1040.5 hPa West 18.5 km/h 18.5 km/h 76 % 0 mm 376.0 W/m2 CLR
10:11 -21.7 °C -24.8 °C 1040.5 hPa West 14.8 km/h 14.8 km/h 76 % 0 mm 383.0 W/m2 CLR
10:16 -21.4 °C -24.6 °C 1040.5 hPa North 18.5 km/h 18.5 km/h 76 % 0 mm 390.0 W/m2 CLR
10:18 -21.3 °C -24.4 °C 1040.2 hPa SW 11.1 km/h 11.1 km/h 76 % 0 mm 394.0 W/m2 CLR
10:23 -21.2 °C -24.5 °C 1040.2 hPa WSW 13 km/h 13 km/h 75 % 0 mm 401.0 W/m2 CLR
10:24 -21.2 °C -24.4 °C 1040.2 hPa WSW 14.8 km/h 14.8 km/h 75 % 0 mm 403.0 W/m2 CLR
10:29 -21.1 °C -24.3 °C 1040.2 hPa WSW 13 km/h 13 km/h 75 % 0 mm 410.0 W/m2 CLR
10:30 -21.1 °C -24.3 °C 1040.2 hPa WSW 13 km/h 13 km/h 75 % 0 mm 413.0 W/m2 CLR
10:34 -20.8 °C -24.1 °C 1040.2 hPa WSW 16.7 km/h 16.7 km/h 75 % 0 mm 418.0 W/m2 CLR
10:35 -20.8 °C -24.3 °C 1039.8 hPa WSW 14.8 km/h 14.8 km/h 74 % 0 mm 418.0 W/m2 CLR
10:40 -20.7 °C -24.2 °C 1039.8 hPa WSW 14.8 km/h 14.8 km/h 74 % 0 mm 424.0 W/m2 CLR
10:46 -20.4 °C -23.9 °C 1039.8 hPa SW 12.9 km/h 12.9 km/h 74 % 0 mm 431.0 W/m2 CLR
10:51 -20.2 °C -23.7 °C 1039.5 hPa North 14.8 km/h 14.8 km/h 74 % 0 mm 438.0 W/m2 CLR
10:52 -20.2 °C -23.8 °C 1039.5 hPa WSW 13 km/h 13 km/h 73 % 0 mm 438.0 W/m2 CLR
10:53 -20.2 °C -23.8 °C 1039.5 hPa SW 14.8 km/h 14.8 km/h 73 % 0 mm 438.0 W/m2 CLR
10:58 -19.9 °C -23.6 °C 1039.5 hPa WSW 16.7 km/h 16.7 km/h 73 % 0 mm 445.0 W/m2 CLR
10:59 -19.9 °C -23.6 °C 1039.5 hPa North 16.7 km/h 16.7 km/h 73 % 0 mm 443.0 W/m2 CLR
11:01 -19.9 °C -23.6 °C 1039.2 hPa SW 17.7 km/h 17.7 km/h 73 % 0 mm 446.0 W/m2 CLR
11:04 -19.9 °C -23.7 °C 1039.2 hPa SSW 14.8 km/h 14.8 km/h 72 % 0 mm 448.0 W/m2 CLR
11:07 -19.8 °C -23.6 °C 1039.2 hPa SW 7.4 km/h 7.4 km/h 72 % 0 mm 450.0 W/m2 CLR
11:10 -19.7 °C -23.4 °C 1039.2 hPa SW 11.1 km/h 11.1 km/h 72 % 0 mm 454.0 W/m2 CLR
11:15 -19.5 °C -23.3 °C 1039.2 hPa SW 13 km/h 13 km/h 72 % 0 mm 457.0 W/m2 CLR
11:16 -19.5 °C -23.3 °C 1039.2 hPa SW 14.5 km/h 14.5 km/h 72 % 0 mm 457.0 W/m2 CLR
11:17 -19.5 °C -23.3 °C 1039.2 hPa WSW 16.7 km/h 16.7 km/h 72 % 0 mm 455.0 W/m2 CLR
11:22 -19.3 °C -23.1 °C 1038.8 hPa SW 11.3 km/h 11.3 km/h 72 % 0 mm 459.0 W/m2 CLR
11:26 -19.1 °C -22.9 °C 1038.8 hPa West 13 km/h 13 km/h 72 % 0 mm 462.0 W/m2 CLR
11:27 -19.1 °C -22.8 °C 1038.8 hPa WSW 16.7 km/h 16.7 km/h 72 % 0 mm 462.0 W/m2 CLR
11:31 -18.8 °C -22.6 °C 1038.8 hPa SW 9.3 km/h 9.3 km/h 72 % 0 mm 466.0 W/m2 CLR
11:33 -18.8 °C -22.4 °C 1038.5 hPa WSW 11.1 km/h 11.1 km/h 73 % 0 mm 464.0 W/m2 CLR
11:38 -18.5 °C -22.3 °C 1038.5 hPa WSW 16.7 km/h 16.7 km/h 72 % 0 mm 468.0 W/m2 CLR
11:43 -18.3 °C -22 °C 1038.5 hPa SW 18.5 km/h 18.5 km/h 73 % 0 mm 469.0 W/m2 CLR
11:44 -18.3 °C -22 °C 1038.5 hPa West 16.7 km/h 16.7 km/h 73 % 0 mm 466.0 W/m2 CLR
11:46 -18.2 °C -21.9 °C 1038.5 hPa WSW 13 km/h 13 km/h 73 % 0 mm 468.0 W/m2 CLR
11:51 -17.9 °C -21.6 °C 1038.1 hPa WSW 11.1 km/h 11.1 km/h 73 % 0 mm 469.0 W/m2 CLR
11:52 -17.9 °C -21.6 °C 1038.1 hPa SW 11.1 km/h 11.1 km/h 73 % 0 mm 469.0 W/m2 CLR
11:57 -17.8 °C -21.6 °C 1038.1 hPa SW 8 km/h 8 km/h 72 % 0 mm 469.0 W/m2 CLR
11:58 -17.8 °C -21.6 °C 1038.1 hPa SW 11.1 km/h 11.1 km/h 72 % 0 mm 469.0 W/m2 CLR
12:03 -17.8 °C -21.6 °C 1037.8 hPa WSW 13 km/h 13 km/h 72 % 0 mm 471.0 W/m2 CLR
12:08 -17.7 °C -21.6 °C 1037.8 hPa WSW 13 km/h 13 km/h 72 % 0 mm 468.0 W/m2 CLR
12:11 -17.7 °C -21.5 °C 1037.8 hPa SW 14.8 km/h 14.8 km/h 72 % 0 mm 468.0 W/m2 CLR
12:14 -17.7 °C -21.5 °C 1037.8 hPa SW 11.1 km/h 11.1 km/h 72 % 0 mm 468.0 W/m2 CLR
12:19 -17.6 °C -21.4 °C 1037.5 hPa WSW 13 km/h 13 km/h 72 % 0 mm 466.0 W/m2 CLR
12:20 -17.6 °C -21.4 °C 1037.5 hPa SSW 5.6 km/h   72 % 0 mm 466.0 W/m2 CLR
12:25 -17.6 °C -21.6 °C 1037.5 hPa SW 13 km/h 13 km/h 71 % 0 mm 462.0 W/m2 CLR
12:26 -17.6 °C -21.6 °C 1037.5 hPa SW 9.7 km/h 9.7 km/h 71 % 0 mm 462.0 W/m2 CLR
12:33 -17.6 °C -21.6 °C 1037.5 hPa SW 11.1 km/h 11.1 km/h 71 % 0 mm 461.0 W/m2 CLR
12:38 -17.6 °C -21.4 °C 1037.1 hPa WSW 14.8 km/h 14.8 km/h 72 % 0 mm 457.0 W/m2 CLR
12:40 -17.5 °C -21.3 °C 1037.1 hPa WSW 13 km/h 13 km/h 72 % 0 mm 454.0 W/m2 CLR
12:44 -17.4 °C -21.2 °C 1036.8 hPa North 8 km/h 8 km/h 72 % 0 mm 454.0 W/m2 CLR
12:46 -17.3 °C -21.2 °C 1036.8 hPa SSW 9.3 km/h 9.3 km/h 72 % 0 mm 450.0 W/m2 CLR
12:51 -17.1 °C -20.8 °C 1036.8 hPa WSW 11.1 km/h 11.1 km/h 73 % 0 mm 446.0 W/m2 CLR
12:52 -17.1 °C -20.8 °C 1036.8 hPa SW 13 km/h 13 km/h 73 % 0 mm 445.0 W/m2 CLR
12:57 -17 °C -20.8 °C 1036.8 hPa WSW 13 km/h 13 km/h 72 % 0 mm 443.0 W/m2 CLR
13:02 -17 °C -21 °C 1036.5 hPa SSW 13 km/h 13 km/h 71 % 0 mm 436.0 W/m2 CLR
13:03 -17 °C -21 °C 1036.5 hPa SSW 16.7 km/h 16.7 km/h 71 % 0 mm 438.0 W/m2 CLR
13:08 -16.9 °C -20.8 °C 1036.5 hPa SW 11.1 km/h 11.1 km/h 72 % 0 mm 431.0 W/m2 CLR
13:09 -16.9 °C -20.8 °C 1036.5 hPa North 9.7 km/h 9.7 km/h 72 % 0 mm 429.0 W/m2 CLR
13:14 -16.9 °C -20.9 °C 1036.5 hPa SW 16.7 km/h 16.7 km/h 71 % 0 mm 424.0 W/m2 CLR
13:15 -17 °C -21 °C 1036.5 hPa SW 18.5 km/h 18.5 km/h 71 % 0 mm 422.0 W/m2 CLR
13:20 -17.1 °C -21.1 °C 1036.1 hPa SW 13 km/h 13 km/h 71 % 0 mm 417.0 W/m2 CLR
13:21 -17.1 °C -21.1 °C 1036.1 hPa North 7.4 km/h 7.4 km/h 71 % 0 mm 415.0 W/m2 CLR
13:25 -17.1 °C -21.1 °C 1036.1 hPa SW 13 km/h 13 km/h 71 % 0 mm 410.0 W/m2 CLR
13:26 -17.1 °C -20.9 °C 1036.1 hPa SW 18.5 km/h 18.5 km/h 72 % 0 mm 408.0 W/m2 CLR
13:27 -17.1 °C -20.9 °C 1036.1 hPa SW 18.5 km/h 18.5 km/h 72 % 0 mm 406.0 W/m2 CLR
13:32 -17.1 °C -20.9 °C 1036.1 hPa WSW 6.4 km/h 6.4 km/h 72 % 0 mm 403.0 W/m2 CLR
13:37 -16.9 °C -20.8 °C 1036.1 hPa North 16.7 km/h 16.7 km/h 72 % 0 mm 392.0 W/m2 CLR
13:39 -16.9 °C -20.7 °C 1035.8 hPa SW 11.3 km/h 11.3 km/h 72 % 0 mm 388.0 W/m2 CLR
13:43 -16.8 °C -20.7 °C 1035.8 hPa SW 13 km/h 13 km/h 72 % 0 mm 385.0 W/m2 CLR
13:45 -16.8 °C -20.7 °C 1035.8 hPa SSW 11.1 km/h 11.1 km/h 72 % 0 mm 380.0 W/m2 CLR
13:48 -16.8 °C -20.7 °C 1035.8 hPa SSW 11.1 km/h 11.1 km/h 72 % 0 mm 374.0 W/m2 CLR
13:53 -16.8 °C -20.7 °C 1035.4 hPa SSW 16.7 km/h 16.7 km/h 72 % 0 mm 367.0 W/m2 CLR
13:58 -16.8 °C -20.7 °C 1035.4 hPa WSW 18.5 km/h 18.5 km/h 72 % 0 mm 357.0 W/m2 CLR
13:59 -16.8 °C -20.7 °C 1035.4 hPa SW 14.8 km/h 14.8 km/h 72 % 0 mm 357.0 W/m2 CLR
14:02 -16.8 °C -20.7 °C 1035.4 hPa SW 18.5 km/h 18.5 km/h 72 % 0 mm 350.0 W/m2 CLR
14:05 -16.8 °C -20.7 °C 1035.4 hPa SSW 18.5 km/h 18.5 km/h 72 % 0 mm 346.0 W/m2 CLR
14:10 -16.7 °C -20.6 °C 1035.4 hPa SW 11.1 km/h   72 % 0 mm 334.0 W/m2 CLR
14:11 -16.6 °C -20.5 °C 1035.1 hPa WSW 3.7 km/h 3.7 km/h 72 % 0 mm 332.0 W/m2 CLR
14:16 -16.5 °C -20.4 °C 1035.1 hPa SW 5.6 km/h 5.6 km/h 72 % 0 mm 320.0 W/m2 CLR
14:17 -16.4 °C -20.3 °C 1035.1 hPa SW 5.6 km/h 5.6 km/h 72 % 0 mm 320.0 W/m2 CLR
14:22 -16.5 °C -20.4 °C 1035.1 hPa SW 14.8 km/h 14.8 km/h 72 % 0 mm 311.0 W/m2 CLR
14:24 -16.6 °C -20.5 °C 1035.1 hPa SSW 14.8 km/h 14.8 km/h 72 % 0 mm 308.0 W/m2 CLR
14:29 -16.7 °C -20.6 °C 1035.1 hPa SW 18.5 km/h 18.5 km/h 72 % 0 mm 295.0 W/m2 CLR
14:30 -16.7 °C -20.6 °C 1035.1 hPa West 16.7 km/h 16.7 km/h 72 % 0 mm 294.0 W/m2 CLR
14:34 -16.7 °C -20.4 °C 1035.1 hPa SW 11.1 km/h 11.1 km/h 73 % 0 mm 283.0 W/m2 CLR
14:39 -16.4 °C -20.2 °C 1035.1 hPa SSW 13 km/h 13 km/h 73 % 0 mm 271.0 W/m2 CLR
14:40 -16.4 °C -20.2 °C 1035.1 hPa SSW 13 km/h 13 km/h 73 % 0 mm 267.0 W/m2 CLR
14:45 -16.4 °C -20.3 °C 1035.1 hPa WSW 11.1 km/h 11.1 km/h 72 % 0 mm 253.0 W/m2 CLR
14:46 -16.4 °C -20.3 °C 1035.1 hPa North 14.8 km/h 14.8 km/h 72 % 0 mm 253.0 W/m2 CLR
14:51 -16.4 °C -20.3 °C 1035.1 hPa SW 18.5 km/h 18.5 km/h 72 % 0 mm 239.0 W/m2 CLR
14:56 -16.4 °C -20.3 °C 1034.8 hPa SW 12.9 km/h 12.9 km/h 72 % 0 mm 223.0 W/m2 CLR
15:01 -16.5 °C -20.4 °C 1034.8 hPa SW 14.8 km/h 14.8 km/h 72 % 0 mm 207.0 W/m2 CLR
15:03 -16.5 °C -20.4 °C 1034.8 hPa SW 20.9 km/h 20.9 km/h 72 % 0 mm 202.0 W/m2 CLR
15:04 -16.6 °C -20.4 °C 1034.4 hPa WSW 22.2 km/h 22.2 km/h 72 % 0 mm 195.0 W/m2 CLR
15:08 -16.4 °C -20.3 °C 1034.4 hPa SW 14.8 km/h 14.8 km/h 72 % 0 mm 185.0 W/m2 CLR
15:13 -16.3 °C -20.2 °C 1034.4 hPa SSW 11.1 km/h 11.1 km/h 72 % 0 mm 169.0 W/m2 CLR
15:14 -16.3 °C -20.2 °C 1034.4 hPa WSW 1.9 km/h   72 % 0 mm 163.0 W/m2 CLR
15:19 -16.3 °C -20.2 °C 1034.4 hPa SSW 11.1 km/h 11.1 km/h 72 % 0 mm 148.0 W/m2 CLR
15:20 -16.3 °C -20.2 °C 1034.4 hPa SSW 11.1 km/h 11.1 km/h 72 % 0 mm 148.0 W/m2 CLR
15:25 -16.4 °C -20.3 °C 1034.4 hPa SSW 14.8 km/h 14.8 km/h 72 % 0 mm 132.0 W/m2 CLR
15:27 -16.5 °C -20.4 °C 1034.4 hPa South 11.1 km/h 11.1 km/h 72 % 0 mm 125.0 W/m2 CLR
15:28 -16.6 °C -20.4 °C 1034.1 hPa SSW 13 km/h 13 km/h 72 % 0 mm 121.0 W/m2 CLR
15:32 -16.6 °C -20.3 °C 1034.1 hPa SSW 14.8 km/h 14.8 km/h 73 % 0 mm 111.0 W/m2 CLR
15:37 -16.6 °C -20.5 °C 1034.1 hPa SSW 8 km/h 8 km/h 72 % 0 mm 97.0 W/m2 CLR
15:38 -16.7 °C -20.6 °C 1034.1 hPa SSW 11.1 km/h 11.1 km/h 72 % 0 mm 90.0 W/m2 CLR
15:43 -16.8 °C -20.7 °C 1034.1 hPa SSW 18.5 km/h 18.5 km/h 72 % 0 mm 25.0 W/m2 CLR
15:46 -16.8 °C -20.6 °C 1034.1 hPa SSW 13 km/h 13 km/h 73 % 0 mm 23.0 W/m2 CLR
15:51 -16.9 °C -20.7 °C 1034.1 hPa SW 11.1 km/h 11.1 km/h 73 % 0 mm 21.0 W/m2 CLR
15:52 -16.9 °C -20.7 °C 1034.1 hPa SSW 11.3 km/h 11.3 km/h 73 % 0 mm 21.0 W/m2 CLR
15:54 -17 °C -20.7 °C 1033.7 hPa SSW 5.6 km/h 5.6 km/h 73 % 0 mm 21.0 W/m2 CLR
15:59 -17 °C -20.6 °C 1033.7 hPa SSW 16.7 km/h 16.7 km/h 74 % 0 mm 19.0 W/m2 CLR
16:03 -17.1 °C -20.4 °C 1033.7 hPa SSW 11.1 km/h 11.1 km/h 75 % 0 mm 18.0 W/m2 CLR
16:06 -17.1 °C -20.5 °C 1033.4 hPa SSW 9.3 km/h 9.3 km/h 75 % 0 mm 16.0 W/m2 CLR
16:13 -17.2 °C -20.4 °C 1033.4 hPa SSW 14.8 km/h 14.8 km/h 76 % 0 mm 14.0 W/m2 CLR
16:16 -17.3 °C -20.5 °C 1033.4 hPa SSW 11.1 km/h 11.1 km/h 76 % 0 mm 12.0 W/m2 CLR
16:18 -17.3 °C -20.5 °C 1033.4 hPa North 9.3 km/h 9.3 km/h 76 % 0 mm 12.0 W/m2 CLR
16:23 -17.3 °C -20.6 °C 1033.1 hPa SSW 5.6 km/h 5.6 km/h 76 % 0 mm 11.0 W/m2 CLR
16:28 -17.4 °C -20.6 °C 1033.1 hPa SSW 22.2 km/h 22.2 km/h 76 % 0 mm 7.0 W/m2 CLR
16:29 -17.4 °C -20.4 °C 1033.1 hPa South 18.5 km/h 18.5 km/h 77 % 0 mm 7.0 W/m2 CLR
16:34 -17.4 °C -20.5 °C 1033.1 hPa SSW 13 km/h 13 km/h 77 % 0 mm 5.0 W/m2 CLR
16:39 -17.5 °C -20.6 °C 1033.1 hPa SSW 11.1 km/h 11.1 km/h 77 % 0 mm 0.0 W/m2 CLR
16:44 -17.6 °C -20.6 °C 1033.1 hPa North 16.7 km/h 16.7 km/h 77 % 0 mm 0.0 W/m2 CLR
16:46 -17.6 °C -20.7 °C 1033.1 hPa South 14.8 km/h 14.8 km/h 77 % 0 mm 0.0 W/m2 CLR
16:47 -17.6 °C -20.7 °C 1033.1 hPa SSW 16.1 km/h 16.1 km/h 77 % 0 mm 0.0 W/m2 CLR
16:52 -17.7 °C -20.7 °C 1032.7 hPa SSW 13 km/h 13 km/h 77 % 0 mm 0.0 W/m2 CLR
16:55 -17.7 °C -20.7 °C 1032.7 hPa SSW 13 km/h 13 km/h 77 % 0 mm 0.0 W/m2 CLR
17:00 -17.7 °C -20.8 °C 1032.7 hPa SW 13 km/h 13 km/h 77 % 0 mm 0.0 W/m2 CLR
17:01 -17.7 °C -20.8 °C 1032.7 hPa SSW 13 km/h 13 km/h 77 % 0 mm 0.0 W/m2 CLR
17:02 -17.7 °C -20.8 °C 1032.7 hPa SSW 11.1 km/h 11.1 km/h 77 % 0 mm 0.0 W/m2 CLR
17:06 -17.8 °C -20.8 °C 1032.7 hPa SSW 11.1 km/h 11.1 km/h 77 % 0 mm 0.0 W/m2 CLR
17:11 -17.8 °C -20.9 °C 1032.4 hPa SSW 13 km/h 13 km/h 77 % 0 mm 0.0 W/m2 CLR
17:13 -17.8 °C -20.9 °C 1032.4 hPa South 14.5 km/h 14.5 km/h 77 % 0 mm 0.0 W/m2 CLR
17:18 -18 °C -21.1 °C 1032.4 hPa SW 7.4 km/h 7.4 km/h 77 % 0 mm 0.0 W/m2 CLR
17:23 -18.2 °C -21.2 °C 1032.1 hPa South 7.4 km/h 7.4 km/h 77 % 0 mm 0.0 W/m2 CLR
17:24 -18.2 °C -21.3 °C 1032.1 hPa SSW 7.4 km/h 7.4 km/h 77 % 0 mm 0.0 W/m2 CLR
17:29 -18.4 °C -21.4 °C 1032.1 hPa SSW 5.6 km/h 5.6 km/h 77 % 0 mm 0.0 W/m2 CLR
17:34 -18.4 °C -21.3 °C 1031.7 hPa SSW 7.4 km/h 7.4 km/h 78 % 0 mm 0.0 W/m2 CLR
17:35 -18.4 °C -21.3 °C 1031.7 hPa SSW 7.4 km/h 7.4 km/h 78 % 0 mm 0.0 W/m2 CLR
17:40 -18.5 °C -21.4 °C 1032.1 hPa SSW 13 km/h 13 km/h 78 % 0 mm 0.0 W/m2 CLR
17:44 -18.5 °C -21.2 °C 1032.1 hPa SSW 9.3 km/h 9.3 km/h 79 % 0 mm 0.0 W/m2 CLR
17:46 -18.5 °C -21.2 °C 1032.1 hPa SW 9.3 km/h 9.3 km/h 79 % 0 mm 0.0 W/m2 CLR
17:51 -18.4 °C -21.2 °C 1031.7 hPa SW 7.4 km/h 7.4 km/h 79 % 0 mm 0.0 W/m2 CLR
17:56 -18.4 °C -21.2 °C 1031.7 hPa SW 16.7 km/h 16.7 km/h 79 % 0 mm 0.0 W/m2 CLR
17:57 -18.4 °C -21.1 °C 1031.7 hPa SSW 9.3 km/h 9.3 km/h 79 % 0 mm 0.0 W/m2 CLR
17:59 -18.3 °C -21.1 °C 1031.7 hPa SSW 11.1 km/h 11.1 km/h 79 % 0 mm 0.0 W/m2 CLR
18:04 -18.2 °C -20.9 °C 1031.7 hPa SW 16.7 km/h 16.7 km/h 79 % 0 mm 0.0 W/m2 CLR
18:05 -18.2 °C -20.9 °C 1031.7 hPa SSW 16.7 km/h 16.7 km/h 79 % 0 mm 0.0 W/m2 CLR
18:10 -18.2 °C -21.1 °C 1031.7 hPa South 14.8 km/h 14.8 km/h 78 % 0 mm 0.0 W/m2 CLR
18:12 -18.2 °C -21.1 °C 1031.7 hPa SW 18.5 km/h 18.5 km/h 78 % 0 mm 0.0 W/m2 CLR
18:17 -18.1 °C -21 °C 1031.7 hPa SSW 9.3 km/h 9.3 km/h 78 % 0 mm 0.0 W/m2 CLR
18:19 -18.1 °C -21 °C 1031.7 hPa SSW 18.5 km/h 18.5 km/h 78 % 0 mm 0.0 W/m2 CLR
18:21 -18.1 °C -21 °C 1031.7 hPa SSW 18.5 km/h 18.5 km/h 78 % 0 mm 0.0 W/m2 CLR
18:24 -18.1 °C -21 °C 1031.7 hPa SSW 22.2 km/h 22.2 km/h 78 % 0 mm 0.0 W/m2 CLR
18:29 -18.2 °C -20.9 °C 1031.4 hPa SW 14.8 km/h 14.8 km/h 79 % 0 mm 0.0 W/m2 CLR
18:30 -18.2 °C -21.1 °C 1031.4 hPa SSW 13 km/h 13 km/h 78 % 0 mm 0.0 W/m2 CLR
18:35 -18.2 °C -20.9 °C 1031.4 hPa SSW 11.1 km/h 11.1 km/h 79 % 0 mm 0.0 W/m2 CLR
18:41 -18.2 °C -20.9 °C 1031 hPa South 18.5 km/h 18.5 km/h 79 % 0 mm 0.0 W/m2 CLR
18:46 -18.2 °C -20.9 °C 1031 hPa SSW 18.5 km/h 18.5 km/h 79 % 0 mm 0.0 W/m2 CLR
18:48 -18.2 °C -20.9 °C 1031 hPa SSW 13 km/h 13 km/h 79 % 0 mm 0.0 W/m2 CLR
18:53 -18.2 °C -20.9 °C 1030.7 hPa SSW 18.5 km/h 18.5 km/h 79 % 0 mm 0.0 W/m2 CLR
18:54 -18.2 °C -20.9 °C 1030.4 hPa SSW 14.5 km/h 14.5 km/h 79 % 0 mm 0.0 W/m2 CLR
18:59 -18.3 °C -21 °C 1030.4 hPa SSW 13 km/h 13 km/h 79 % 0 mm 0.0 W/m2 CLR
19:00 -18.3 °C -21 °C 1030.4 hPa SSW 11.1 km/h 11.1 km/h 79 % 0 mm 0.0 W/m2 CLR
19:01 -18.3 °C -21 °C 1030.4 hPa SW 8 km/h 8 km/h 79 % 0 mm 0.0 W/m2 CLR
19:05 -18.3 °C -20.9 °C 1030 hPa SSW 11.1 km/h 11.1 km/h 80 % 0 mm 0.0 W/m2 CLR
19:07 -18.2 °C -20.8 °C 1030 hPa SSW 11.1 km/h 11.1 km/h 80 % 0 mm 0.0 W/m2 CLR
19:12 -18.1 °C -20.7 °C 1030 hPa SSW 8 km/h 8 km/h 80 % 0 mm 0.0 W/m2 CLR
19:17 -18 °C -20.6 °C 1030 hPa SSW 11.1 km/h 11.1 km/h 80 % 0 mm 0.0 W/m2 CLR
19:18 -17.9 °C -20.6 °C 1030 hPa WSW 14.8 km/h 14.8 km/h 80 % 0 mm 0.0 W/m2 CLR
19:20 -17.9 °C -20.5 °C 1029.7 hPa SSW 11.3 km/h 11.3 km/h 80 % 0 mm 0.0 W/m2 CLR
19:23 -17.8 °C -20.4 °C 1029.7 hPa SSW 16.7 km/h 16.7 km/h 80 % 0 mm 0.0 W/m2 CLR
19:29 -17.6 °C -20.2 °C 1029.7 hPa SSW 13 km/h 13 km/h 80 % 0 mm 0.0 W/m2 CLR
19:31 -17.4 °C -20.1 °C 1029.3 hPa SSW 9.3 km/h 9.3 km/h 80 % 0 mm 0.0 W/m2 CLR
19:36 -17.3 °C -19.9 °C 1029.3 hPa SW 11.1 km/h 11.1 km/h 80 % 0 mm 0.0 W/m2 CLR
19:41 -17.2 °C -19.9 °C 1029 hPa SSW 5.6 km/h 5.6 km/h 79 % 0 mm 0.0 W/m2 CLR
19:44 -17.1 °C -19.9 °C 1029 hPa South 11.1 km/h 11.1 km/h 79 % 0 mm 0.0 W/m2 CLR
19:51 -17.1 °C -19.9 °C 1028.7 hPa South 13 km/h 13 km/h 79 % 0 mm 0.0 W/m2 CLR
19:56 -17.3 °C -20.2 °C 1028.7 hPa South 7.4 km/h 7.4 km/h 78 % 0 mm 0.0 W/m2 CLR
19:57 -17.3 °C -20.2 °C 1028.7 hPa SW 14.8 km/h 14.8 km/h 78 % 0 mm 0.0 W/m2 CLR
20:02 -17.4 °C -20.3 °C 1028.7 hPa SSW 7.4 km/h 7.4 km/h 78 % 0 mm 0.0 W/m2 CLR
20:03 -17.4 °C -20.3 °C 1029 hPa SSW 3.7 km/h 3.7 km/h 78 % 0 mm 0.0 W/m2 CLR
20:04 -17.4 °C -20.3 °C 1028.7 hPa SSW 3.7 km/h 3.7 km/h 78 % 0 mm 0.0 W/m2 CLR
20:10 -17.4 °C -20.3 °C 1029 hPa SSW 13 km/h 13 km/h 78 % 0 mm 0.0 W/m2 CLR
20:15 -17.4 °C -20.2 °C 1029 hPa SSW 5.6 km/h 5.6 km/h 79 % 0 mm 0.0 W/m2 CLR
20:17 -17.4 °C -20.2 °C 1029 hPa SSW 5.6 km/h 5.6 km/h 79 % 0 mm 0.0 W/m2 CLR
20:22 -17.3 °C -20.1 °C 1028.7 hPa SSW 11.1 km/h 11.1 km/h 79 % 0 mm 0.0 W/m2 CLR
20:23 -17.3 °C -20.1 °C 1028.7 hPa SSW 7.4 km/h 7.4 km/h 79 % 0 mm 0.0 W/m2 CLR
20:28 -17.3 °C -20.1 °C 1026.3 hPa SSW 5.6 km/h 5.6 km/h 79 % 0 mm 0.0 W/m2 CLR
20:31 -17.2 °C -20 °C 1026.3 hPa SSW 13 km/h 13 km/h 79 % 0 mm 0.0 W/m2 CLR
20:33 -17.2 °C -19.9 °C 1026.3 hPa SSW 9.3 km/h 9.3 km/h 79 % 0 mm 0.0 W/m2 CLR
20:37 -17.2 °C -19.9 °C 1026 hPa SSW 12.9 km/h 12.9 km/h 79 % 0 mm 0.0 W/m2 CLR
20:39 -17.2 °C -19.9 °C 1026 hPa SSW 11.1 km/h 11.1 km/h 79 % 0 mm 0.0 W/m2 CLR
20:44 -17.2 °C -19.9 °C 1026 hPa SSW 9.3 km/h 9.3 km/h 79 % 0 mm 0.0 W/m2 CLR
20:47 -17.2 °C -19.9 °C 1026 hPa SSW 9.3 km/h 9.3 km/h 79 % 0 mm 0.0 W/m2 CLR
20:48 -17.2 °C -19.9 °C 1026 hPa SSW 7.4 km/h 7.4 km/h 79 % 0 mm 0.0 W/m2 CLR
20:53 -17.1 °C -19.9 °C 1025.6 hPa SSW 7.4 km/h 7.4 km/h 79 % 0 mm 0.0 W/m2 CLR
20:54 -17.1 °C -19.9 °C 1025.6 hPa SSW 9.3 km/h 9.3 km/h 79 % 0 mm 0.0 W/m2 CLR
20:59 -16.9 °C -19.7 °C 1025.6 hPa North 14.5 km/h 14.5 km/h 79 % 0 mm 0.0 W/m2 CLR
21:00 -16.9 °C -19.7 °C 1025.6 hPa SSW 18.5 km/h 18.5 km/h 79 % 0 mm 0.0 W/m2 CLR
21:05 -16.9 °C -19.7 °C 1025.3 hPa South 13 km/h 13 km/h 79 % 0 mm 0.0 W/m2 CLR
21:06 -16.8 °C -19.6 °C 1025.3 hPa SSW 9.7 km/h 9.7 km/h 79 % 0 mm 0.0 W/m2 CLR
21:07 -16.8 °C -19.6 °C 1025.3 hPa SSW 14.8 km/h 14.8 km/h 79 % 0 mm 0.0 W/m2 CLR
21:13 -16.8 °C -19.6 °C 1025.3 hPa SW 18.5 km/h 18.5 km/h 79 % 0 mm 0.0 W/m2 CLR
21:14 -16.8 °C -19.6 °C 1025.3 hPa SSW 16.7 km/h 16.7 km/h 79 % 0 mm 0.0 W/m2 CLR
21:20 -16.7 °C -19.5 °C 1024.9 hPa SSW 14.8 km/h 14.8 km/h 79 % 0 mm 0.0 W/m2 CLR
21:30 -16.3 °C -19.1 °C 1024.9 hPa SSW 14.8 km/h 14.8 km/h 79 % 0 mm 0.0 W/m2 CLR
21:40 -15.9 °C -18.9 °C 1024.6 hPa SSW 16.7 km/h 16.7 km/h 78 % 0 mm 0.0 W/m2 CLR
21:44 -15.9 °C -18.8 °C 1024.6 hPa South 18.5 km/h 18.5 km/h 78 % 0 mm 0.0 W/m2 CLR
21:47 -15.8 °C -18.8 °C 1024.6 hPa SW 18.5 km/h 18.5 km/h 78 % 0 mm 0.0 W/m2 CLR
21:49 -15.7 °C -18.7 °C 1024.6 hPa SSW 14.8 km/h 14.8 km/h 78 % 0 mm 0.0 W/m2 CLR
21:53 -15.7 °C -18.6 °C 1024.3 hPa SW 25.9 km/h 25.9 km/h 78 % 0 mm 0.0 W/m2 CLR
21:58 -15.4 °C -18.6 °C 1024.3 hPa SW 13 km/h 13 km/h 77 % 0 mm 0.0 W/m2 CLR
22:04 -15.3 °C -18.4 °C 1023.9 hPa SSW 14.8 km/h 14.8 km/h 77 % 0 mm 0.0 W/m2 CLR
22:09 -15.2 °C -18.3 °C 1024.3 hPa SSW 18.5 km/h 18.5 km/h 77 % 0 mm 0.0 W/m2 CLR
22:12 -15.1 °C -18.4 °C 1023.9 hPa SSW 16.7 km/h 16.7 km/h 76 % 0 mm 0.0 W/m2 CLR
22:16 -15.1 °C -18.3 °C 1023.9 hPa South 20.4 km/h 20.4 km/h 76 % 0 mm 0.0 W/m2 CLR
22:21 -14.9 °C -18.2 °C 1023.9 hPa SW 16.7 km/h 16.7 km/h 76 % 0 mm 0.0 W/m2 CLR
22:26 -14.7 °C -18 °C 1023.6 hPa SW 20.4 km/h 20.4 km/h 76 % 0 mm 0.0 W/m2 CLR
22:30 -14.7 °C -17.9 °C 1023.6 hPa SSW 22.5 km/h 22.5 km/h 76 % 0 mm 0.0 W/m2 CLR
22:35 -14.7 °C -17.9 °C 1023.6 hPa SW 18.5 km/h 18.5 km/h 76 % 0 mm 0.0 W/m2 CLR
22:37 -14.7 °C -17.9 °C 1023.6 hPa SW 12.9 km/h 12.9 km/h 76 % 0 mm 0.0 W/m2 CLR
22:39 -14.7 °C -18.1 °C 1023.6 hPa SW 22.5 km/h 22.5 km/h 75 % 0 mm 0.0 W/m2 CLR
22:42 -14.7 °C -17.9 °C 1023.6 hPa SSW 11.1 km/h 11.1 km/h 76 % 0 mm 0.0 W/m2 CLR
22:47 -14.7 °C -17.9 °C 1023.6 hPa SW 14.8 km/h 14.8 km/h 76 % 0 mm 0.0 W/m2 CLR
22:48 -14.7 °C -17.9 °C 1023.6 hPa SSW 11.1 km/h 11.1 km/h 76 % 0 mm 0.0 W/m2 CLR
22:49 -14.7 °C -18.1 °C 1023.6 hPa SW 16.7 km/h 16.7 km/h 75 % 0 mm 0.0 W/m2 CLR
22:54 -14.7 °C -18 °C 1023.6 hPa SSW 17.7 km/h 17.7 km/h 76 % 0 mm 0.0 W/m2 CLR
22:55 -14.7 °C -17.9 °C 1023.6 hPa SSW 19.3 km/h 19.3 km/h 76 % 0 mm 0.0 W/m2 CLR
23:00 -14.8 °C -18.2 °C 1023.2 hPa South 18.5 km/h 18.5 km/h 75 % 0 mm 0.0 W/m2 CLR
23:04 -14.8 °C -18.1 °C 1023.2 hPa SW 18.5 km/h 18.5 km/h 76 % 0 mm 0.0 W/m2 CLR
23:05 -14.8 °C -18.1 °C 1023.2 hPa SW 14.8 km/h 14.8 km/h 76 % 0 mm 0.0 W/m2 CLR
23:09 -14.8 °C -18.1 °C 1023.2 hPa South 20.4 km/h 20.4 km/h 76 % 0 mm 0.0 W/m2 CLR
23:14 -14.8 °C -18.1 °C 1023.2 hPa SSW 14.8 km/h 14.8 km/h 76 % 0 mm 0.0 W/m2 CLR
23:16 -14.8 °C -18.1 °C 1023.2 hPa SSW 18.5 km/h 18.5 km/h 76 % 0 mm 0.0 W/m2 CLR
23:19 -14.8 °C -18.1 °C 1023.2 hPa SW 18.5 km/h 18.5 km/h 76 % 0 mm 0.0 W/m2 CLR
23:22 -14.8 °C -18.1 °C 1023.2 hPa SSW 18.5 km/h 18.5 km/h 76 % 0 mm 0.0 W/m2 CLR
23:25 -14.8 °C -18.1 °C 1023.2 hPa SSW 13 km/h 13 km/h 76 % 0 mm 0.0 W/m2 CLR
23:30 -14.7 °C -18 °C 1023.2 hPa SSW 16.7 km/h 16.7 km/h 76 % 0 mm 0.0 W/m2 CLR
23:35 -14.7 °C -17.9 °C 1022.9 hPa South 18.5 km/h 18.5 km/h 76 % 0 mm 0.0 W/m2 CLR
23:36 -14.7 °C -18 °C 1022.9 hPa SW 18.5 km/h 18.5 km/h 76 % 0 mm 0.0 W/m2 CLR
23:37 -14.7 °C -18 °C 1022.9 hPa WSW 18.5 km/h 18.5 km/h 76 % 0 mm 0.0 W/m2 CLR
23:42 -14.7 °C -17.9 °C 1022.9 hPa SSW 14.8 km/h 14.8 km/h 76 % 0 mm 0.0 W/m2 CLR
23:43 -14.7 °C -17.9 °C 1022.9 hPa SSW 11.1 km/h 11.1 km/h 76 % 0 mm 0.0 W/m2 CLR
23:48 -14.7 °C -17.9 °C 1022.6 hPa SSW 11.1 km/h 11.1 km/h 76 % 0 mm 0.0 W/m2 CLR
23:49 -14.6 °C -17.9 °C 1022.6 hPa SSW 9.3 km/h 9.3 km/h 76 % 0 mm 0.0 W/m2 CLR
23:54 -14.7 °C -17.9 °C 1022.6 hPa SSW 9.3 km/h 9.3 km/h 76 % 0 mm 0.0 W/m2 CLR
23:55 -14.7 °C -17.9 °C 1022.6 hPa SSW 5.6 km/h   76 % 0 mm 0.0 W/m2 CLR
23:58 -14.7 °C -17.9 °C 1022.6 hPa SW 7.4 km/h 7.4 km/h 76 % 0 mm 0.0 W/m2 CLR
Bourbonnais, Illinois, USA
Compliments of Weather Underground - 4.25 mb